North East, Pennsylvania
Current Conditions -  °F | °C
As of 12:35 AM on Thursday 18 Dec 2014 (Local Time) from KERI Reporting Station
Overcast Overcast  
Wind Chill: 21°   Ceiling: 2900
Heat Index: 32°   Visibility: 10mi
Dew Point: 22°   Wind: 16mph
Humidity: 66%   Direction: 280°W
Pressure: 30.08"   Gusts: 25mph
Location:  42.22°N, 79.83°W
Report Text: KERI 180535Z 28014G22KT 10SM SCT022 OVC029 00/M06 A3008 RMK AO2 UPB0452E01 P0000 T00001056
Loading
Personal Weather Stations






























Interactive Weather Map New forecast layout! Learn more

10-Day Weather Forecast

Advertisements
Track Severe Weather on mobile